createdAt,value
2018-05-06T00:00:04.071Z,45.54
2018-05-06T00:01:04.244Z,45.93
2018-05-06T00:02:04.413Z,46.41
2018-05-06T00:03:04.583Z,45.74
2018-05-06T00:04:04.750Z,45.83
2018-05-06T00:05:04.916Z,45.52
2018-05-06T00:06:05.089Z,45.26
2018-05-06T00:07:05.255Z,46.77
2018-05-06T00:08:05.433Z,46.58
2018-05-06T00:09:05.602Z,46.00
2018-05-06T00:10:05.769Z,45.90
2018-05-06T00:11:05.940Z,46.03
2018-05-06T00:12:06.113Z,45.43
2018-05-06T00:13:06.276Z,46.48
2018-05-06T00:14:06.445Z,46.70
2018-05-06T00:15:06.629Z,46.60
2018-05-06T00:16:06.776Z,46.70
2018-05-06T00:17:06.943Z,46.79
2018-05-06T00:18:07.112Z,46.79
2018-05-06T00:19:07.288Z,46.79
2018-05-06T00:20:07.456Z,46.70
2018-05-06T00:21:07.625Z,46.70
2018-05-06T00:22:07.793Z,46.89
2018-05-06T00:23:07.963Z,46.48
2018-05-06T00:24:08.133Z,46.86
2018-05-06T00:25:08.304Z,47.34
2018-05-06T00:26:08.467Z,47.53
2018-05-06T00:27:08.630Z,48.59
2018-05-06T00:28:08.806Z,48.11
2018-05-06T00:29:08.971Z,48.11
2018-05-06T00:30:09.138Z,48.02
2018-05-06T00:31:09.307Z,48.11
2018-05-06T00:32:09.473Z,48.18
2018-05-06T00:33:09.641Z,47.73
2018-05-06T00:34:09.803Z,47.99
2018-05-06T00:35:09.968Z,48.49
2018-05-06T00:36:10.132Z,48.57
2018-05-06T00:37:10.304Z,47.99
2018-05-06T00:38:10.472Z,48.09
2018-05-06T00:39:10.641Z,47.99
2018-05-06T00:40:10.811Z,48.18
2018-05-06T00:41:13.554Z,49.14
2018-05-06T00:42:14.022Z,48.28
2018-05-06T00:43:11.315Z,48.09
2018-05-06T00:44:11.481Z,48.66
2018-05-06T00:45:11.649Z,48.57
2018-05-06T00:46:11.833Z,48.28
2018-05-06T00:47:11.994Z,48.47
2018-05-06T00:48:12.173Z,48.47
2018-05-06T00:49:12.343Z,48.66
2018-05-06T00:50:12.514Z,48.75
2018-05-06T00:51:12.686Z,48.66
2018-05-06T00:52:12.848Z,47.99
2018-05-06T00:53:13.013Z,48.75
2018-05-06T00:54:13.182Z,48.75
2018-05-06T00:55:13.345Z,48.66
2018-05-06T00:56:13.512Z,48.38
2018-05-06T00:57:13.685Z,49.05
2018-05-06T00:58:13.852Z,49.62
2018-05-06T00:59:14.019Z,49.71
2018-05-06T01:00:14.191Z,49.14
2018-05-06T01:01:14.350Z,49.24
2018-05-06T01:02:14.519Z,48.95
2018-05-06T01:03:14.681Z,49.33
2018-05-06T01:04:14.852Z,48.85
2018-05-06T01:05:15.019Z,49.11
2018-05-06T01:06:15.206Z,49.43
2018-05-06T01:07:15.369Z,49.24
2018-05-06T01:08:15.540Z,49.24
2018-05-06T01:09:15.703Z,49.71
2018-05-06T01:10:15.860Z,49.81
2018-05-06T01:11:16.957Z,50.29
2018-05-06T01:12:16.188Z,50.29
2018-05-06T01:13:16.363Z,49.98
2018-05-06T01:15:29.592Z,50.07
2018-05-06T01:16:29.764Z,50.26
2018-05-06T01:17:29.932Z,50.84
2018-05-06T01:18:30.099Z,51.06
2018-05-06T01:19:30.274Z,51.06
2018-05-06T01:20:30.441Z,50.74
2018-05-06T01:21:30.609Z,50.93
2018-05-06T01:22:30.773Z,50.93
2018-05-06T01:23:30.942Z,50.84
2018-05-06T01:24:31.117Z,50.36
2018-05-06T01:25:31.275Z,50.56
2018-05-06T01:26:31.445Z,50.84
2018-05-06T01:27:31.615Z,51.03
2018-05-06T01:29:24.857Z,51.32
2018-05-06T01:30:25.022Z,51.70
2018-05-06T01:31:25.191Z,51.99
2018-05-06T01:32:25.357Z,52.28
2018-05-06T01:33:25.528Z,52.09
2018-05-06T01:34:25.689Z,51.70
2018-05-06T01:35:25.852Z,52.56
2018-05-06T01:36:26.020Z,53.33
2018-05-06T01:37:26.190Z,53.81
2018-05-06T01:38:26.356Z,54.28
2018-05-06T01:39:26.523Z,54.28
2018-05-06T01:40:26.692Z,54.86
2018-05-06T01:41:26.858Z,54.48
2018-05-06T01:42:27.024Z,54.38
2018-05-06T01:43:27.191Z,54.38
2018-05-06T01:44:27.363Z,53.42
2018-05-06T01:45:27.537Z,52.47
2018-05-06T01:46:27.712Z,52.95
2018-05-06T01:47:27.876Z,52.85
2018-05-06T01:48:28.049Z,51.70
2018-05-06T01:49:28.213Z,51.89
2018-05-06T01:50:28.381Z,52.28
2018-05-06T01:51:28.548Z,52.75
2018-05-06T01:52:28.721Z,52.83
2018-05-06T01:53:28.899Z,52.73
2018-05-06T01:54:29.063Z,52.75
2018-05-06T01:55:29.229Z,53.49
2018-05-06T01:56:29.398Z,52.73
2018-05-06T01:57:29.572Z,52.56
2018-05-06T01:58:29.733Z,53.40
2018-05-06T01:59:29.904Z,54.07
2018-05-06T02:00:30.072Z,53.97
2018-05-06T02:01:30.238Z,53.71
2018-05-06T02:02:30.404Z,54.26
2018-05-06T02:03:30.573Z,54.26
2018-05-06T02:04:30.737Z,54.36
2018-05-06T02:05:30.909Z,54.36
2018-05-06T02:06:31.075Z,54.26
2018-05-06T02:07:31.241Z,54.45
2018-05-06T02:08:31.406Z,54.07
2018-05-06T02:09:31.571Z,54.16
2018-05-06T02:10:31.738Z,54.64
2018-05-06T02:11:31.910Z,53.88
2018-05-06T02:12:32.085Z,54.45
2018-05-06T02:13:32.243Z,54.83
2018-05-06T02:14:32.409Z,54.74
2018-05-06T02:15:32.576Z,54.83
2018-05-06T02:16:32.744Z,54.83
2018-05-06T02:17:32.910Z,54.55
2018-05-06T02:18:33.078Z,54.74
2018-05-06T02:19:33.241Z,55.12
2018-05-06T02:20:33.411Z,56.46
2018-05-06T02:21:33.579Z,57.13
2018-05-06T02:22:33.738Z,57.42
2018-05-06T02:23:33.897Z,57.58
2018-05-06T02:24:34.066Z,57.39
2018-05-06T02:25:34.233Z,57.01
2018-05-06T02:26:34.400Z,57.23
2018-05-06T02:27:34.566Z,56.94
2018-05-06T02:28:34.736Z,56.43
2018-05-06T02:29:34.901Z,56.24
2018-05-06T02:30:35.077Z,56.34
2018-05-06T02:31:35.233Z,56.72
2018-05-06T02:32:35.402Z,56.53
2018-05-06T02:33:35.573Z,56.53
2018-05-06T02:34:35.744Z,57.29
2018-05-06T02:35:35.904Z,57.20
2018-05-06T02:36:36.072Z,56.91
2018-05-06T02:37:36.238Z,57.01
2018-05-06T02:38:36.404Z,58.06
2018-05-06T02:39:36.572Z,57.77
2018-05-06T02:40:36.744Z,57.87
2018-05-06T02:41:36.911Z,57.77
2018-05-06T02:42:37.083Z,58.06
2018-05-06T02:43:37.251Z,58.25
2018-05-06T02:44:37.417Z,57.68
2018-05-06T02:45:37.584Z,58.06
2018-05-06T02:46:37.754Z,58.51
2018-05-06T02:47:37.921Z,58.89
2018-05-06T02:48:38.094Z,58.89
2018-05-06T02:49:38.252Z,58.98
2018-05-06T02:50:38.416Z,59.84
2018-05-06T02:51:38.584Z,59.84
2018-05-06T02:52:38.750Z,60.04
2018-05-06T02:53:38.958Z,60.23
2018-05-06T02:54:39.122Z,60.52
2018-05-06T02:55:39.291Z,60.71
2018-05-06T02:56:39.469Z,60.61
2018-05-06T02:57:39.633Z,61.47
2018-05-06T02:58:39.805Z,61.28
2018-05-06T02:59:39.969Z,62.14
2018-05-06T03:00:40.133Z,61.85
2018-05-06T03:01:40.310Z,61.38
2018-05-06T03:02:40.479Z,61.47
2018-05-06T03:03:40.639Z,60.80
2018-05-06T03:04:41.221Z,60.33
2018-05-06T03:05:41.647Z,60.35
2018-05-06T03:06:41.595Z,60.33
2018-05-06T03:07:41.675Z,60.45
2018-05-06T03:08:42.023Z,60.80
2018-05-06T03:09:42.186Z,60.80
2018-05-06T03:10:42.453Z,60.99
2018-05-06T03:11:42.671Z,60.71
2018-05-06T03:12:42.811Z,61.19
2018-05-06T03:13:43.340Z,61.66
2018-05-06T03:14:43.161Z,61.57
2018-05-06T03:15:42.923Z,61.38
2018-05-06T03:16:43.085Z,61.47
2018-05-06T03:17:43.258Z,61.57
2018-05-06T03:18:43.423Z,61.95
2018-05-06T03:19:43.592Z,61.66
2018-05-06T03:20:43.766Z,61.47
2018-05-06T03:21:43.927Z,60.80
2018-05-06T03:22:44.104Z,60.04
2018-05-06T03:23:44.265Z,59.66
2018-05-06T03:24:44.430Z,59.75
2018-05-06T03:25:44.605Z,59.94
2018-05-06T03:26:44.770Z,59.84
2018-05-06T03:27:44.935Z,60.42
2018-05-06T03:28:45.187Z,60.33
2018-05-06T03:29:45.315Z,60.42
2018-05-06T03:30:45.482Z,60.52
2018-05-06T03:31:45.658Z,61.54
2018-05-06T03:32:45.820Z,61.63
2018-05-06T03:33:45.983Z,61.16
2018-05-06T03:34:46.151Z,62.21
2018-05-06T03:35:46.316Z,62.21
2018-05-06T03:36:46.484Z,62.30
2018-05-06T03:37:46.653Z,62.11
2018-05-06T03:38:46.817Z,62.49
2018-05-06T03:39:46.994Z,62.97
2018-05-06T03:40:47.162Z,63.35
2018-05-06T03:41:47.329Z,63.26
2018-05-06T03:42:47.494Z,63.26
2018-05-06T03:43:47.666Z,64.31
2018-05-06T03:44:47.841Z,63.93
2018-05-06T03:45:48.003Z,64.12
2018-05-06T03:46:48.173Z,63.83
2018-05-06T03:47:48.339Z,63.35
2018-05-06T03:48:48.512Z,63.45
2018-05-06T03:49:48.669Z,63.16
2018-05-06T03:50:48.840Z,62.21
2018-05-06T03:51:49.015Z,61.72
2018-05-06T03:52:49.182Z,61.82
2018-05-06T03:53:49.349Z,61.92
2018-05-06T03:54:49.515Z,61.82
2018-05-06T03:55:49.683Z,61.92
2018-05-06T03:56:49.853Z,61.16
2018-05-06T03:57:50.019Z,61.54
2018-05-06T03:58:50.189Z,61.19
2018-05-06T03:59:50.365Z,61.28
2018-05-06T04:00:50.528Z,60.80
2018-05-06T04:01:50.688Z,60.23
2018-05-06T04:02:50.859Z,60.13
2018-05-06T04:03:51.024Z,59.75
2018-05-06T04:04:51.192Z,60.33
2018-05-06T04:05:51.375Z,59.84
2018-05-06T04:06:51.523Z,60.99
2018-05-06T04:07:51.692Z,59.75
2018-05-06T04:08:51.858Z,60.23
2018-05-06T04:09:52.023Z,60.71
2018-05-06T04:10:52.192Z,61.57
2018-05-06T04:11:52.439Z,60.99
2018-05-06T04:12:52.515Z,61.09
2018-05-06T04:13:52.681Z,61.38
2018-05-06T04:14:52.850Z,61.28
2018-05-06T04:15:53.023Z,61.47
2018-05-06T04:16:53.186Z,61.19
2018-05-06T04:17:53.352Z,61.47
2018-05-06T04:18:53.523Z,61.66
2018-05-06T04:19:53.692Z,62.43
2018-05-06T04:20:53.858Z,61.66
2018-05-06T04:21:54.032Z,61.38
2018-05-06T04:22:54.200Z,61.85
2018-05-06T04:23:54.373Z,62.14
2018-05-06T04:24:54.537Z,62.33
2018-05-06T04:25:54.704Z,62.14
2018-05-06T04:26:54.957Z,61.95
2018-05-06T04:27:55.041Z,61.28
2018-05-06T04:28:55.209Z,60.42
2018-05-06T04:29:55.375Z,60.13
2018-05-06T04:30:55.560Z,59.75
2018-05-06T04:31:55.729Z,59.94
2018-05-06T04:32:55.897Z,60.52
2018-05-06T04:33:56.060Z,60.90
2018-05-06T04:34:56.235Z,60.42
2018-05-06T04:35:56.399Z,59.30
2018-05-06T04:36:56.560Z,58.34
2018-05-06T04:37:56.725Z,58.25
2018-05-06T04:38:56.891Z,58.25
2018-05-06T04:39:57.063Z,58.15
2018-05-06T04:40:57.225Z,58.06
2018-05-06T04:41:57.393Z,57.80
2018-05-06T04:42:57.566Z,57.32
2018-05-06T04:43:57.732Z,57.70
2018-05-06T04:44:57.899Z,58.18
2018-05-06T04:45:58.068Z,58.09
2018-05-06T04:46:58.246Z,58.09
2018-05-06T04:47:58.398Z,58.18
2018-05-06T04:48:58.566Z,58.28
2018-05-06T04:49:58.731Z,57.99
2018-05-06T04:50:58.902Z,58.09
2018-05-06T04:51:59.064Z,58.83
2018-05-06T04:52:59.228Z,59.40
2018-05-06T04:53:59.400Z,59.78
2018-05-06T04:54:59.562Z,60.06
2018-05-06T04:55:59.723Z,60.83
2018-05-06T04:56:59.896Z,61.12
2018-05-06T04:58:00.063Z,61.51
2018-05-06T04:59:00.231Z,61.51
2018-05-06T05:00:00.408Z,61.41
2018-05-06T05:01:00.579Z,61.79
2018-05-06T05:02:00.748Z,62.17
2018-05-06T05:03:00.919Z,61.79
2018-05-06T05:04:01.088Z,61.98
2018-05-06T05:05:01.259Z,61.88
2018-05-06T05:06:01.417Z,62.37
2018-05-06T05:07:01.583Z,63.51
2018-05-06T05:08:01.826Z,64.25
2018-05-06T05:09:01.913Z,63.60
2018-05-06T05:10:02.075Z,63.39
2018-05-06T05:11:02.245Z,63.86
2018-05-06T05:12:02.413Z,64.43
2018-05-06T05:13:02.579Z,63.57
2018-05-06T05:14:02.752Z,64.34
2018-05-06T05:15:02.917Z,65.01
2018-05-06T05:16:03.089Z,64.43
2018-05-06T05:17:03.250Z,65.01
2018-05-06T05:18:03.413Z,65.26
2018-05-06T05:19:03.583Z,65.11
2018-05-06T05:20:03.751Z,65.11
2018-05-06T05:21:03.916Z,65.11
2018-05-06T05:22:04.079Z,65.11
2018-05-06T05:23:04.246Z,64.72
2018-05-06T05:24:04.409Z,65.26
2018-05-06T05:25:04.578Z,65.58
2018-05-06T05:26:04.747Z,65.87
2018-05-06T05:27:04.907Z,65.30
2018-05-06T05:28:05.076Z,64.62
2018-05-06T05:29:05.245Z,65.11
2018-05-06T05:30:05.407Z,65.11
2018-05-06T05:31:05.579Z,65.30
2018-05-06T05:32:05.743Z,64.82
2018-05-06T05:33:05.909Z,64.82
2018-05-06T05:34:06.071Z,64.15
2018-05-06T05:35:06.246Z,64.15
2018-05-06T05:36:06.420Z,64.91
2018-05-06T05:37:06.594Z,64.05
2018-05-06T05:38:06.767Z,64.25
2018-05-06T05:39:06.933Z,65.52
2018-05-06T05:40:07.094Z,65.42
2018-05-06T05:41:07.268Z,64.95
2018-05-06T05:42:07.435Z,63.99
2018-05-06T05:43:07.601Z,63.99
2018-05-06T05:44:07.766Z,63.73
2018-05-06T05:45:07.933Z,64.50
2018-05-06T05:46:08.096Z,63.64
2018-05-06T05:47:08.260Z,63.93
2018-05-06T05:48:08.429Z,63.48
2018-05-06T05:49:08.593Z,63.76
2018-05-06T05:50:08.759Z,62.43
2018-05-06T05:51:08.927Z,61.85
2018-05-06T05:52:09.091Z,62.52
2018-05-06T05:53:09.259Z,63.00
2018-05-06T05:54:09.433Z,62.71
2018-05-06T05:55:09.601Z,63.10
2018-05-06T05:56:09.767Z,63.10
2018-05-06T05:57:09.934Z,63.42
2018-05-06T05:58:10.102Z,62.26
2018-05-06T05:59:10.270Z,62.26
2018-05-06T06:00:10.451Z,61.98
2018-05-06T06:01:10.621Z,61.69
2018-05-06T06:02:10.796Z,61.98
2018-05-06T06:03:10.967Z,61.98
2018-05-06T06:04:11.136Z,62.17
2018-05-06T06:05:11.297Z,61.72
2018-05-06T06:06:11.469Z,62.10
2018-05-06T06:07:11.638Z,61.34
2018-05-06T06:08:11.807Z,61.05
2018-05-06T06:09:11.970Z,60.47
2018-05-06T06:10:12.133Z,59.52
2018-05-06T06:11:12.303Z,58.59
2018-05-06T06:12:12.490Z,58.78
2018-05-06T06:13:12.654Z,57.72
2018-05-06T06:14:12.886Z,56.86
2018-05-06T06:15:12.998Z,55.52
2018-05-06T06:16:13.168Z,54.30
2018-05-06T06:17:13.337Z,53.91
2018-05-06T06:18:13.517Z,54.39
2018-05-06T06:19:13.690Z,54.11
2018-05-06T06:20:13.856Z,53.15
2018-05-06T06:21:14.023Z,52.69
2018-05-06T06:22:14.195Z,52.50
2018-05-06T06:23:14.366Z,52.69
2018-05-06T06:24:14.532Z,52.89
2018-05-06T06:25:14.710Z,52.22
2018-05-06T06:26:14.878Z,51.47
2018-05-06T06:27:15.052Z,51.09
2018-05-06T06:28:15.220Z,52.05
2018-05-06T06:29:15.389Z,53.01
2018-05-06T06:30:15.564Z,52.14
2018-05-06T06:31:15.733Z,51.76
2018-05-06T06:32:15.902Z,51.28
2018-05-06T06:33:16.067Z,51.09
2018-05-06T06:34:16.235Z,50.32
2018-05-06T06:35:16.408Z,50.25
2018-05-06T06:36:16.582Z,51.18
2018-05-06T06:37:16.748Z,50.92
2018-05-06T06:38:16.929Z,50.44
2018-05-06T06:39:17.091Z,50.44
2018-05-06T06:40:17.258Z,49.57
2018-05-06T06:41:17.425Z,48.61
2018-05-06T06:42:17.591Z,48.23
2018-05-06T06:43:17.760Z,47.46
2018-05-06T06:44:17.924Z,48.25
2018-05-06T06:45:18.104Z,48.64
2018-05-06T06:46:18.275Z,48.45
2018-05-06T06:47:18.441Z,47.77
2018-05-06T06:48:18.616Z,48.45
2018-05-06T06:49:18.787Z,47.87
2018-05-06T06:50:18.954Z,47.70
2018-05-06T06:51:19.135Z,47.80
2018-05-06T06:52:19.307Z,47.61
2018-05-06T06:53:19.479Z,47.51
2018-05-06T06:54:19.667Z,47.03
2018-05-06T06:55:19.820Z,46.74
2018-05-06T06:56:19.991Z,46.74
2018-05-06T06:57:20.155Z,46.86
2018-05-06T06:58:20.327Z,47.03
2018-05-06T06:59:20.502Z,45.99
2018-05-06T07:00:20.667Z,45.80
2018-05-06T07:01:20.831Z,45.80
2018-05-06T07:02:21.013Z,45.90
2018-05-06T07:03:21.193Z,45.61
2018-05-06T07:04:21.350Z,45.99
2018-05-06T07:05:21.517Z,46.09
2018-05-06T07:06:21.689Z,45.51
2018-05-06T07:07:21.855Z,44.86
2018-05-06T07:08:22.030Z,45.42
2018-05-06T07:09:22.198Z,45.83
2018-05-06T07:10:22.390Z,45.51
2018-05-06T07:11:22.567Z,44.65
2018-05-06T07:12:22.720Z,44.09
2018-05-06T07:13:22.896Z,44.09
2018-05-06T07:14:23.065Z,44.57
2018-05-06T07:15:23.243Z,44.76
2018-05-06T07:16:23.418Z,44.67
2018-05-06T07:17:23.582Z,43.61
2018-05-06T07:18:23.760Z,43.71
2018-05-06T07:19:23.987Z,44.28
2018-05-06T07:20:24.114Z,44.28
2018-05-06T07:21:24.275Z,44.19
2018-05-06T07:22:24.451Z,44.76
2018-05-06T07:23:24.617Z,45.53
2018-05-06T07:24:24.819Z,45.75
2018-05-06T07:25:25.009Z,44.21
2018-05-06T07:26:25.619Z,44.49
2018-05-06T07:27:25.299Z,44.21
2018-05-06T07:28:25.459Z,44.11
2018-05-06T07:29:25.622Z,44.49
2018-05-06T07:30:25.794Z,45.65
2018-05-06T07:31:25.967Z,44.49
2018-05-06T07:32:26.137Z,44.21
2018-05-06T07:33:26.307Z,44.11
2018-05-06T07:34:26.477Z,44.31
2018-05-06T07:35:26.649Z,43.73
2018-05-06T07:36:26.825Z,44.11
2018-05-06T07:37:26.993Z,44.02
2018-05-06T07:38:27.173Z,44.13
2018-05-06T07:39:27.342Z,43.73
2018-05-06T07:40:27.594Z,43.63
2018-05-06T07:41:27.773Z,43.63
2018-05-06T07:42:27.866Z,44.31
2018-05-06T07:43:28.042Z,44.32
2018-05-06T07:44:28.208Z,44.13
2018-05-06T07:45:28.381Z,44.23
2018-05-06T07:46:28.553Z,44.71
2018-05-06T07:47:28.727Z,44.52
2018-05-06T07:48:28.894Z,44.13
2018-05-06T07:49:29.053Z,44.13
2018-05-06T07:50:29.255Z,44.35
2018-05-06T07:51:29.455Z,44.45
2018-05-06T07:52:29.562Z,43.07
2018-05-06T07:53:29.736Z,42.80
2018-05-06T07:54:29.908Z,42.40
2018-05-06T07:55:30.083Z,43.19
2018-05-06T07:56:30.262Z,43.00
2018-05-06T07:57:30.436Z,42.61
2018-05-06T07:58:30.606Z,42.13
2018-05-06T07:59:30.780Z,43.00
2018-05-06T08:00:30.952Z,43.00
2018-05-06T08:01:31.125Z,43.21
2018-05-06T08:02:31.301Z,42.73
2018-05-06T08:03:31.483Z,42.15
2018-05-06T08:04:31.654Z,42.15
2018-05-06T08:05:31.846Z,42.44
2018-05-06T08:06:32.036Z,41.48
2018-05-06T08:07:32.206Z,41.57
2018-05-06T08:08:32.371Z,41.88
2018-05-06T08:09:32.543Z,41.57
2018-05-06T08:10:32.723Z,42.05
2018-05-06T08:11:32.896Z,42.46
2018-05-06T08:12:33.074Z,42.46
2018-05-06T08:13:33.257Z,41.96
2018-05-06T08:14:33.434Z,41.88
2018-05-06T08:15:33.603Z,41.78
2018-05-06T08:16:33.884Z,41.20
2018-05-06T08:17:33.992Z,41.60
2018-05-06T08:18:34.124Z,41.69
2018-05-06T08:19:34.301Z,41.69
2018-05-06T08:20:35.427Z,41.11
2018-05-06T08:21:34.789Z,41.13
2018-05-06T08:22:34.865Z,40.94
2018-05-06T08:23:35.036Z,40.17
2018-05-06T08:24:35.213Z,39.97
2018-05-06T08:25:35.393Z,40.28
2018-05-06T08:26:35.563Z,39.12
2018-05-06T08:27:35.734Z,39.12
2018-05-06T08:28:35.891Z,39.03
2018-05-06T08:29:36.081Z,39.03
2018-05-06T08:30:36.264Z,38.93
2018-05-06T08:31:36.427Z,38.45
2018-05-06T08:32:36.604Z,38.25
2018-05-06T08:33:36.774Z,39.32
2018-05-06T08:34:36.975Z,39.12
2018-05-06T08:35:37.154Z,39.22
2018-05-06T08:36:37.329Z,39.24
2018-05-06T08:37:37.544Z,38.66
2018-05-06T08:38:37.677Z,37.12
2018-05-06T08:39:37.859Z,37.62
2018-05-06T08:40:38.023Z,37.90
2018-05-06T08:41:38.207Z,36.84
2018-05-06T08:42:38.371Z,36.65
2018-05-06T08:43:38.539Z,36.74
2018-05-06T08:44:38.717Z,36.84
2018-05-06T08:45:38.892Z,36.76
2018-05-06T08:46:39.447Z,35.99
2018-05-06T08:47:39.455Z,35.80
2018-05-06T08:48:39.446Z,35.41
2018-05-06T08:49:39.621Z,35.13
2018-05-06T08:50:39.794Z,34.94
2018-05-06T08:51:39.970Z,33.70
2018-05-06T08:52:40.146Z,33.41
2018-05-06T08:53:40.316Z,33.33
2018-05-06T08:54:40.498Z,34.02
2018-05-06T08:55:40.792Z,32.78
2018-05-06T08:56:40.869Z,32.52
2018-05-06T08:57:41.047Z,30.41
2018-05-06T08:58:41.224Z,28.22
2018-05-06T08:59:41.448Z,26.70
2018-05-06T09:00:41.590Z,24.40
2018-05-06T09:01:41.766Z,22.87
2018-05-06T09:02:41.941Z,21.83
2018-05-06T09:03:42.118Z,20.66
2018-05-06T09:04:42.300Z,19.99
2018-05-06T09:05:42.485Z,19.81
2018-05-06T09:06:42.663Z,19.24
2018-05-06T09:07:42.833Z,18.07
2018-05-06T09:08:43.026Z,17.99
2018-05-06T09:09:43.201Z,16.63
2018-05-06T09:10:43.384Z,17.12
2018-05-06T09:11:43.563Z,16.54
2018-05-06T09:12:43.948Z,15.66
2018-05-06T09:13:44.010Z,15.28
2018-05-06T09:14:44.940Z,14.89
2018-05-06T09:15:44.328Z,14.59
2018-05-06T09:16:44.510Z,15.08
2018-05-06T09:17:44.710Z,14.81
2018-05-06T09:18:45.938Z,14.82
2018-05-06T09:19:45.355Z,14.03
2018-05-06T09:20:45.280Z,14.24
2018-05-06T09:21:45.468Z,13.75
2018-05-06T09:22:45.640Z,13.65
2018-05-06T09:23:45.846Z,13.65
2018-05-06T09:24:46.018Z,13.35
2018-05-06T09:25:46.201Z,13.17
2018-05-06T09:26:46.373Z,13.06
2018-05-06T09:27:46.560Z,12.97
2018-05-06T09:28:46.751Z,12.29
2018-05-06T09:29:46.928Z,12.79
2018-05-06T09:30:47.123Z,12.59
2018-05-06T09:31:47.323Z,12.40
2018-05-06T09:32:47.491Z,12.30
2018-05-06T09:33:47.680Z,12.10
2018-05-06T09:34:47.860Z,12.21
2018-05-06T09:35:48.049Z,11.42
2018-05-06T09:36:48.235Z,11.42
2018-05-06T09:37:48.531Z,11.42
2018-05-06T09:38:48.613Z,11.32
2018-05-06T09:39:48.803Z,11.42
2018-05-06T09:40:48.996Z,11.61
2018-05-06T09:41:49.187Z,11.11
2018-05-06T09:42:49.369Z,11.33
2018-05-06T09:43:49.555Z,11.61
2018-05-06T09:44:49.812Z,11.51
2018-05-06T09:45:49.866Z,11.61
2018-05-06T09:46:50.068Z,11.32
2018-05-06T09:47:51.044Z,11.22
2018-05-06T09:48:50.496Z,11.22
2018-05-06T09:49:50.671Z,11.61
2018-05-06T09:50:51.527Z,10.52
2018-05-06T09:51:51.083Z,10.24
2018-05-06T09:52:51.279Z,10.15
2018-05-06T09:53:51.544Z,9.36
2018-05-06T09:54:53.541Z,9.26
2018-05-06T09:55:51.859Z,9.47
2018-05-06T09:56:52.047Z,9.08
2018-05-06T09:57:52.247Z,9.06
2018-05-06T09:58:52.424Z,9.66
2018-05-06T09:59:52.634Z,10.25
2018-05-06T10:00:52.821Z,9.56
2018-05-06T10:01:53.013Z,9.16
2018-05-06T10:02:53.281Z,8.76
2018-05-06T10:03:53.347Z,9.06
2018-05-06T10:04:53.546Z,9.06
2018-05-06T10:05:53.734Z,8.87
2018-05-06T10:06:53.925Z,8.78
2018-05-06T10:07:54.125Z,7.87
2018-05-06T10:08:54.310Z,7.08
2018-05-06T10:09:54.532Z,7.48
2018-05-06T10:10:54.767Z,6.98
2018-05-06T10:11:55.045Z,7.28
2018-05-06T10:12:55.107Z,7.48
2018-05-06T10:13:55.305Z,7.48
2018-05-06T10:14:56.444Z,7.48
2018-05-06T10:15:55.714Z,7.28
2018-05-06T10:16:55.878Z,7.67
2018-05-06T10:17:56.084Z,7.27
2018-05-06T10:18:56.271Z,8.06
2018-05-06T10:19:57.289Z,7.28
2018-05-06T10:20:56.697Z,7.18
2018-05-06T10:21:56.892Z,6.98
2018-05-06T10:22:57.132Z,6.78
2018-05-06T10:23:57.540Z,7.18
2018-05-06T10:24:57.569Z,8.17
2018-05-06T10:25:57.768Z,7.98
2018-05-06T10:26:57.822Z,7.58
2018-05-06T10:27:58.789Z,7.28
2018-05-06T10:28:59.231Z,7.18
2018-05-06T10:29:58.431Z,6.99
2018-05-06T10:30:58.626Z,7.08
2018-05-06T10:31:58.831Z,7.18
2018-05-06T10:32:59.030Z,6.79
2018-05-06T10:33:59.216Z,6.79
2018-05-06T10:34:59.505Z,6.70
2018-05-06T10:35:59.581Z,6.49
2018-05-06T10:36:59.787Z,5.99
2018-05-06T10:38:00.045Z,6.29
2018-05-06T10:39:00.231Z,6.70
2018-05-06T10:40:00.423Z,6.30
2018-05-06T10:41:00.863Z,6.60
2018-05-06T10:42:00.819Z,6.21
2018-05-06T10:43:01.014Z,5.90
2018-05-06T10:44:01.288Z,6.81
2018-05-06T10:45:01.404Z,6.91
2018-05-06T10:46:01.611Z,6.99
2018-05-06T10:47:01.853Z,7.20
2018-05-06T10:48:01.999Z,6.79
2018-05-06T10:49:02.274Z,7.10
2018-05-06T10:50:02.411Z,6.70
2018-05-06T10:51:02.605Z,6.30
2018-05-06T10:52:04.808Z,5.51
2018-05-06T10:53:02.984Z,6.21
2018-05-06T10:54:03.191Z,6.91
2018-05-06T10:55:03.386Z,7.20
2018-05-06T10:56:04.441Z,7.40
2018-05-06T10:57:04.174Z,6.91
2018-05-06T10:58:04.011Z,6.61
2018-05-06T10:59:04.331Z,6.12
2018-05-06T11:00:04.442Z,6.32
2018-05-06T11:01:04.630Z,6.12
2018-05-06T11:02:04.827Z,5.81
2018-05-06T11:03:05.045Z,5.91
2018-05-06T11:04:05.448Z,5.51
2018-05-06T11:05:05.472Z,5.40
2018-05-06T11:06:05.679Z,6.09
2018-05-06T11:07:05.868Z,6.87
2018-05-06T11:08:06.060Z,7.26
2018-05-06T11:09:06.256Z,7.46
2018-05-06T11:10:06.526Z,7.26
2018-05-06T11:11:06.652Z,7.57
2018-05-06T11:12:06.860Z,7.47
2018-05-06T11:13:07.049Z,6.68
2018-05-06T11:14:07.249Z,6.29
2018-05-06T11:15:07.450Z,6.60
2018-05-06T11:16:07.650Z,6.20
2018-05-06T11:17:07.850Z,6.09
2018-05-06T11:18:08.044Z,6.49
2018-05-06T11:19:08.257Z,6.69
2018-05-06T11:20:08.445Z,6.29
2018-05-06T11:21:08.640Z,6.70
2018-05-06T11:22:08.862Z,6.20
2018-05-06T11:23:09.041Z,6.00
2018-05-06T11:24:09.230Z,5.51
2018-05-06T11:25:09.435Z,5.21
2018-05-06T11:26:09.647Z,5.11
2018-05-06T11:27:09.830Z,5.01
2018-05-06T11:28:10.029Z,5.51
2018-05-06T11:29:10.226Z,5.31
2018-05-06T11:30:10.415Z,5.11
2018-05-06T11:31:10.611Z,5.21
2018-05-06T11:32:10.812Z,4.91
2018-05-06T11:33:11.004Z,4.52
2018-05-06T11:34:11.204Z,5.01
2018-05-06T11:35:11.399Z,5.51
2018-05-06T11:36:11.601Z,6.20
2018-05-06T11:37:11.809Z,6.20
2018-05-06T11:38:12.012Z,6.50
2018-05-06T11:39:12.202Z,6.88
2018-05-06T11:40:12.400Z,7.08
2018-05-06T11:41:12.594Z,6.79
2018-05-06T11:42:12.796Z,7.48
2018-05-06T11:43:12.989Z,7.09
2018-05-06T11:44:13.183Z,6.70
2018-05-06T11:45:13.386Z,7.08
2018-05-06T11:46:13.576Z,6.98
2018-05-06T11:47:13.787Z,7.29
2018-05-06T11:48:13.983Z,6.79
2018-05-06T11:49:14.184Z,6.99
2018-05-06T11:50:14.384Z,6.88
2018-05-06T11:51:14.590Z,7.48
2018-05-06T11:52:14.767Z,7.59
2018-05-06T11:53:14.959Z,7.58
2018-05-06T11:54:15.159Z,7.68
2018-05-06T11:55:15.359Z,8.27
2018-05-06T11:56:15.643Z,8.45
2018-05-06T11:57:15.761Z,8.86
2018-05-06T11:58:15.959Z,8.57
2018-05-06T11:59:16.162Z,8.28
2018-05-06T12:00:16.363Z,7.89
2018-05-06T12:01:16.558Z,7.59
2018-05-06T12:02:16.786Z,7.98
2018-05-06T12:03:16.945Z,7.87
2018-05-06T12:04:17.143Z,8.17
2018-05-06T12:05:17.337Z,7.87
2018-05-06T12:06:17.540Z,8.56
2018-05-06T12:07:17.734Z,8.47
2018-05-06T12:08:17.924Z,8.28
2018-05-06T12:09:18.129Z,7.59
2018-05-06T12:10:18.326Z,6.79
2018-05-06T12:11:18.549Z,7.59
2018-05-06T12:12:18.730Z,6.70
2018-05-06T12:13:18.922Z,6.11
2018-05-06T12:14:19.123Z,6.20
2018-05-06T12:15:19.320Z,6.40
2018-05-06T12:16:20.424Z,6.70
2018-05-06T12:17:19.712Z,7.59
2018-05-06T12:18:19.913Z,7.48
2018-05-06T12:19:20.109Z,7.08
2018-05-06T12:20:20.304Z,7.87
2018-05-06T12:21:20.498Z,7.77
2018-05-06T12:22:20.703Z,8.17
2018-05-06T12:23:20.894Z,8.47
2018-05-06T12:24:21.099Z,8.37
2018-05-06T12:25:21.301Z,7.78
2018-05-06T12:26:21.498Z,7.49
2018-05-06T12:27:21.704Z,6.99
2018-05-06T12:28:21.905Z,6.79
2018-05-06T12:29:22.097Z,6.98
2018-05-06T12:30:22.302Z,7.18
2018-05-06T12:31:22.497Z,7.09
2018-05-06T12:32:22.697Z,6.39
2018-05-06T12:33:22.890Z,6.69
2018-05-06T12:34:23.079Z,5.69
2018-05-06T12:35:23.291Z,7.08
2018-05-06T12:36:23.494Z,6.88
2018-05-06T12:37:23.689Z,7.07
2018-05-06T12:38:23.883Z,8.06
2018-05-06T12:39:24.079Z,8.25
2018-05-06T12:40:24.279Z,8.64
2018-05-06T12:41:25.413Z,9.12
2018-05-06T12:42:24.718Z,9.52
2018-05-06T12:43:24.925Z,10.30
2018-05-06T12:44:25.061Z,10.79
2018-05-06T12:45:25.260Z,11.46
2018-05-06T12:46:25.458Z,12.92
2018-05-06T12:47:25.663Z,13.77
2018-05-06T12:48:25.867Z,14.26
2018-05-06T12:49:26.143Z,14.75
2018-05-06T12:50:26.256Z,15.03
2018-05-06T12:51:26.446Z,15.21
2018-05-06T12:52:26.642Z,15.69
2018-05-06T12:53:26.842Z,16.27
2018-05-06T12:54:27.030Z,16.86
2018-05-06T12:55:27.221Z,17.14
2018-05-06T12:56:27.405Z,18.21
2018-05-06T12:57:27.592Z,17.13
2018-05-06T12:58:27.779Z,17.91
2018-05-06T12:59:27.964Z,17.91
2018-05-06T13:00:28.147Z,18.11
2018-05-06T13:01:28.331Z,18.88
2018-05-06T13:02:28.624Z,18.68